Richmond, VA (23279)

12:54 PM EDT on May 03, 2015 (GMT -0400)
Bellevue | | Change Station
CLOSE
Current Station
Personal Weather Station
Location: Richmond, VA
Elevation: 180 ft
Nearby Weather Stations

Elev 180 ft 37.59 °N, 77.46 °W | Updated 5 seconds ago

Clear
Clear
79.5 °F
Feels Like 78 °F
N
0.7
Wind Variable Wind from West
Gusts 3.1 mph

Today
High -- | Low -- °F
--% Chance of Precip.
Yesterday
High -- | Low -- °F
Precip. -- in
6:12 AM 8:01 PM
Full, 100% visible
Pressure 30.17 in
Visibility 10.0 miles
Clouds Few 6000 ft
Scattered Clouds 10000 ft
Heat Index 78 °F
Dew Point 20 °F
Humidity 11%
Rainfall 0.00 in
Snow Depth Not available.
UV 8 out of 12
Pollen 9.60 out of 12
Air Quality Not available.
Flu Activity Sporadic
METAR KRIC 031554Z VRB04KT 10SM FEW060 SCT100 26/03 A3015 RMK AO2 SLP215 T02610033

More Conditions Fewer Conditions

Pressure 30.17 in
Visibility 10.0 miles
Clouds Few 6000 ft
Scattered Clouds 10000 ft
Heat Index 78 °F
Dew Point 20 °F
Humidity 11%
Rainfall 0.00 in
Snow Depth Not available.
UV 8 out of 12
Pollen 9.60 out of 12
Air Quality Not available.
Flu Activity Sporadic
METAR KRIC 031554Z VRB04KT 10SM FEW060 SCT100 26/03 A3015 RMK AO2 SLP215 T02610033

More Conditions Fewer Conditions

Nepal has a long way to go to dig out and rebuild from a devastating earthquake. We have teamed up with several charities and organizations to make contributing to the relief effort as easy as possible.
How you can help: Portlight Strategies | Red Cross

10-Day Weather Forecast

Almanac

Astronomy

May. 03, 2015 Rise Set
Actual Time
Civil Twilight
Nautical Twilight
Astronomical Twilight
Moon
Length of Visible Light
Length of Day
Tomorrow will be .
, % of the Moon is Illuminated

Today's Extremes

State Highs State Lows

Community

WunderPhotos

Upload Photos

1,818,274 photos uploaded!

WunderBlogs® & News

Nearby

Air Quality

  Air Quality AQ Index Pollutant
Not available.

Snow Depth

Station Depth Elevation

Earthquake Activity

City Distance Mag. Time & Date
Minimum magnitude displayed is 2.5.

Coastal Water Temperatures

Place Temperature

Stations

Nearby Weather Stations

Station Location Temp. Windchill Dew Point Humidity Wind Precip. Elev Updated Type